West Groton, New York
Current Conditions -  °F | °C
As of 11:56 AM on Thursday 30 Oct 2014 (Local Time) from KITH Reporting Station
Overcast Overcast  
Wind Chill: 39°   Ceiling: 2500
Heat Index: 45°   Visibility: 10mi
Dew Point: 36°   Wind: 12mph
Humidity: 71%   Direction: 300°WNW
Pressure: 30.05"   Gusts: NA
Location:  42.5874°N, 76.3904°W
Report Text: KITH 301556Z 30010KT 10SM OVC025 07/02 A3005 RMK AO2 T00720022 SLP183
Loading
Personal Weather Stations






























Interactive Weather Map
Tropical Storm Tracking
New forecast layout! Learn more

10-Day Weather Forecast

Advertisements
Track Severe Weather on mobile